createdAt,value
2018-05-15T00:00:12.121Z,55.57
2018-05-15T00:00:43.782Z,55.61
2018-05-15T00:01:15.383Z,55.89
2018-05-15T00:01:46.976Z,55.92
2018-05-15T00:02:18.566Z,55.79
2018-05-15T00:02:50.137Z,55.89
2018-05-15T00:03:21.738Z,55.96
2018-05-15T00:03:53.326Z,56.01
2018-05-15T00:04:24.920Z,56.03
2018-05-15T00:04:56.493Z,56.04
2018-05-15T00:05:28.124Z,56.23
2018-05-15T00:05:59.759Z,56.25
2018-05-15T00:06:31.362Z,56.27
2018-05-15T00:07:02.950Z,56.29
2018-05-15T00:07:34.533Z,56.42
2018-05-15T00:08:06.125Z,56.45
2018-05-15T00:08:37.714Z,56.54
2018-05-15T00:09:09.317Z,56.47
2018-05-15T00:09:40.931Z,56.53
2018-05-15T00:10:12.512Z,56.55
2018-05-15T00:10:44.114Z,56.66
2018-05-15T00:11:15.738Z,56.79
2018-05-15T00:11:47.366Z,56.67
2018-05-15T00:12:18.969Z,56.73
2018-05-15T00:12:50.568Z,56.76
2018-05-15T00:13:22.177Z,56.78
2018-05-15T00:13:53.772Z,56.76
2018-05-15T00:14:25.386Z,56.80
2018-05-15T00:14:56.965Z,56.73
2018-05-15T00:15:28.578Z,56.92
2018-05-15T00:16:00.152Z,56.97
2018-05-15T00:16:31.780Z,56.90
2018-05-15T00:17:03.386Z,57.00
2018-05-15T00:17:34.994Z,57.07
2018-05-15T00:18:06.588Z,57.10
2018-05-15T00:18:38.197Z,57.18
2018-05-15T00:19:09.769Z,57.12
2018-05-15T00:19:41.370Z,57.29
2018-05-15T00:20:12.949Z,57.27
2018-05-15T00:20:44.534Z,57.38
2018-05-15T00:21:16.138Z,57.46
2018-05-15T00:21:47.768Z,57.35
2018-05-15T00:22:19.373Z,57.83
2018-05-15T00:22:50.962Z,57.40
2018-05-15T00:23:22.532Z,57.42
2018-05-15T00:23:54.182Z,57.53
2018-05-15T00:24:25.768Z,57.42
2018-05-15T00:24:57.373Z,57.48
2018-05-15T00:25:28.976Z,57.43
2018-05-15T00:26:00.559Z,57.54
2018-05-15T00:26:32.137Z,57.41
2018-05-15T00:27:03.748Z,57.65
2018-05-15T00:27:35.354Z,57.48
2018-05-15T00:28:06.941Z,57.70
2018-05-15T00:28:38.541Z,57.75
2018-05-15T00:29:10.112Z,57.71
2018-05-15T00:29:41.713Z,57.75
2018-05-15T00:30:13.326Z,57.65
2018-05-15T00:30:44.929Z,57.72
2018-05-15T00:31:16.514Z,57.76
2018-05-15T00:31:48.098Z,57.84
2018-05-15T00:32:19.734Z,58.03
2018-05-15T00:32:51.353Z,58.25
2018-05-15T00:33:22.934Z,57.84
2018-05-15T00:33:54.518Z,58.08
2018-05-15T00:34:26.108Z,57.79
2018-05-15T00:34:57.814Z,57.88
2018-05-15T00:35:29.398Z,57.98
2018-05-15T00:36:00.972Z,57.89
2018-05-15T00:36:32.565Z,57.95
2018-05-15T00:37:04.160Z,58.11
2018-05-15T00:37:35.766Z,57.99
2018-05-15T00:38:07.374Z,58.08
2018-05-15T00:38:38.958Z,58.13
2018-05-15T00:39:10.548Z,58.00
2018-05-15T00:39:42.154Z,58.20
2018-05-15T00:40:13.827Z,58.21
2018-05-15T00:40:45.419Z,58.35
2018-05-15T00:41:16.993Z,58.44
2018-05-15T00:41:48.600Z,58.76
2018-05-15T00:42:20.196Z,58.22
2018-05-15T00:42:51.792Z,58.38
2018-05-15T00:43:23.376Z,58.33
2018-05-15T00:43:54.978Z,58.46
2018-05-15T00:44:26.586Z,58.40
2018-05-15T00:44:58.194Z,58.57
2018-05-15T00:45:29.822Z,58.53
2018-05-15T00:46:01.426Z,58.61
2018-05-15T00:46:33.058Z,59.26
2018-05-15T00:47:04.628Z,59.07
2018-05-15T00:47:36.214Z,58.88
2018-05-15T00:48:07.804Z,58.55
2018-05-15T00:48:39.440Z,58.41
2018-05-15T00:49:11.026Z,58.60
2018-05-15T00:49:42.630Z,58.43
2018-05-15T00:50:14.222Z,58.94
2018-05-15T00:50:45.822Z,58.45
2018-05-15T00:51:17.463Z,58.88
2018-05-15T00:51:49.037Z,58.58
2018-05-15T00:52:20.622Z,58.67
2018-05-15T00:52:52.214Z,58.89
2018-05-15T00:53:23.810Z,58.64
2018-05-15T00:53:55.384Z,58.70
2018-05-15T00:54:26.985Z,58.55
2018-05-15T00:54:58.594Z,59.12
2018-05-15T00:55:30.176Z,58.62
2018-05-15T00:56:01.781Z,58.59
2018-05-15T00:56:33.398Z,58.49
2018-05-15T00:57:05.020Z,58.53
2018-05-15T00:57:36.638Z,58.75
2018-05-15T00:58:08.213Z,58.75
2018-05-15T00:58:39.798Z,58.76
2018-05-15T00:59:11.396Z,58.85
2018-05-15T00:59:43.006Z,59.42
2018-05-15T01:00:14.618Z,59.43
2018-05-15T01:00:46.250Z,58.85
2018-05-15T01:01:17.853Z,59.00
2018-05-15T01:01:49.466Z,58.75
2018-05-15T01:02:21.078Z,58.80
2018-05-15T01:02:52.661Z,59.29
2018-05-15T01:03:24.247Z,59.29
2018-05-15T01:03:55.862Z,59.14
2018-05-15T01:04:27.472Z,59.25
2018-05-15T01:04:59.044Z,59.79
2018-05-15T01:05:30.666Z,59.41
2018-05-15T01:06:02.280Z,59.92
2018-05-15T01:06:33.884Z,59.49
2018-05-15T01:07:05.466Z,59.57
2018-05-15T01:07:37.057Z,59.80
2018-05-15T01:08:08.661Z,59.19
2018-05-15T01:08:40.250Z,59.91
2018-05-15T01:09:11.858Z,60.10
2018-05-15T01:09:43.486Z,59.65
2018-05-15T01:10:15.071Z,60.05
2018-05-15T01:10:46.654Z,60.05
2018-05-15T01:11:18.266Z,60.15
2018-05-15T01:11:49.854Z,60.02
2018-05-15T01:12:21.443Z,59.86
2018-05-15T01:12:53.073Z,60.01
2018-05-15T01:13:24.655Z,60.15
2018-05-15T01:13:56.257Z,60.11
2018-05-15T01:14:27.853Z,60.08
2018-05-15T01:14:59.424Z,59.85
2018-05-15T01:15:31.001Z,59.80
2018-05-15T01:16:02.586Z,60.01
2018-05-15T01:16:34.238Z,59.72
2018-05-15T01:17:05.845Z,59.84
2018-05-15T01:17:37.454Z,59.94
2018-05-15T01:18:09.038Z,60.04
2018-05-15T01:18:40.650Z,60.14
2018-05-15T01:19:12.244Z,60.52
2018-05-15T01:19:43.859Z,60.35
2018-05-15T01:20:15.442Z,59.99
2018-05-15T01:20:47.037Z,60.28
2018-05-15T01:21:18.627Z,60.53
2018-05-15T01:21:50.207Z,60.79
2018-05-15T01:22:21.794Z,60.65
2018-05-15T01:22:53.401Z,60.68
2018-05-15T01:23:24.996Z,60.83
2018-05-15T01:23:56.582Z,60.68
2018-05-15T01:24:28.210Z,60.84
2018-05-15T01:24:59.813Z,60.73
2018-05-15T01:25:31.402Z,60.87
2018-05-15T01:26:02.982Z,60.74
2018-05-15T01:26:34.581Z,60.58
2018-05-15T01:27:06.174Z,60.84
2018-05-15T01:27:37.766Z,61.00
2018-05-15T01:28:09.360Z,61.33
2018-05-15T01:28:40.937Z,61.19
2018-05-15T01:29:12.543Z,61.01
2018-05-15T01:29:44.125Z,61.68
2018-05-15T01:30:15.729Z,61.76
2018-05-15T01:30:47.318Z,61.42
2018-05-15T01:31:18.917Z,61.33
2018-05-15T01:31:50.624Z,61.25
2018-05-15T01:32:22.144Z,61.31
2018-05-15T01:32:53.736Z,61.26
2018-05-15T01:33:25.317Z,61.11
2018-05-15T01:33:56.913Z,61.31
2018-05-15T01:34:28.518Z,61.44
2018-05-15T01:35:00.106Z,61.48
2018-05-15T01:35:31.714Z,61.37
2018-05-15T01:36:03.354Z,61.49
2018-05-15T01:36:34.929Z,61.66
2018-05-15T01:37:06.544Z,61.48
2018-05-15T01:37:38.122Z,61.59
2018-05-15T01:38:09.711Z,61.67
2018-05-15T01:38:41.294Z,62.07
2018-05-15T01:39:12.868Z,61.56
2018-05-15T01:39:44.470Z,61.67
2018-05-15T01:40:16.068Z,61.53
2018-05-15T01:40:47.678Z,61.47
2018-05-15T01:41:19.276Z,61.81
2018-05-15T01:41:50.890Z,61.89
2018-05-15T01:42:22.457Z,63.05
2018-05-15T01:42:54.062Z,62.26
2018-05-15T01:43:25.666Z,61.79
2018-05-15T01:43:57.280Z,61.88
2018-05-15T01:44:28.862Z,62.25
2018-05-15T01:45:00.437Z,61.50
2018-05-15T01:45:32.076Z,61.44
2018-05-15T01:46:03.685Z,61.68
2018-05-15T01:46:35.282Z,61.80
2018-05-15T01:47:06.873Z,61.42
2018-05-15T01:47:38.458Z,61.65
2018-05-15T01:48:10.061Z,61.73
2018-05-15T01:48:41.674Z,61.90
2018-05-15T01:49:13.265Z,61.69
2018-05-15T01:49:44.843Z,61.89
2018-05-15T01:50:16.436Z,61.67
2018-05-15T01:50:48.091Z,61.61
2018-05-15T01:51:19.679Z,61.67
2018-05-15T01:51:51.258Z,61.81
2018-05-15T01:52:22.845Z,61.77
2018-05-15T01:52:54.436Z,61.75
2018-05-15T01:53:26.009Z,61.69
2018-05-15T01:53:57.614Z,61.98
2018-05-15T01:54:29.198Z,62.12
2018-05-15T01:55:00.779Z,62.03
2018-05-15T01:55:32.453Z,62.01
2018-05-15T01:56:04.028Z,61.82
2018-05-15T01:56:35.610Z,61.77
2018-05-15T01:57:07.194Z,61.99
2018-05-15T01:57:38.798Z,62.08
2018-05-15T01:58:10.373Z,62.00
2018-05-15T01:58:41.950Z,61.95
2018-05-15T01:59:13.516Z,62.07
2018-05-15T01:59:45.085Z,62.08
2018-05-15T02:00:16.653Z,61.94
2018-05-15T02:00:48.274Z,62.08
2018-05-15T02:01:19.854Z,62.24
2018-05-15T02:01:51.461Z,62.26
2018-05-15T02:02:23.043Z,62.03
2018-05-15T02:02:54.650Z,62.75
2018-05-15T02:03:26.243Z,62.26
2018-05-15T02:03:57.860Z,62.08
2018-05-15T02:04:29.470Z,62.25
2018-05-15T02:05:01.109Z,62.20
2018-05-15T02:05:32.684Z,62.21
2018-05-15T02:06:04.253Z,62.03
2018-05-15T02:06:35.825Z,62.11
2018-05-15T02:07:07.392Z,62.30
2018-05-15T02:07:38.984Z,61.96
2018-05-15T02:08:10.583Z,62.06
2018-05-15T02:08:42.181Z,62.18
2018-05-15T02:09:13.757Z,61.89
2018-05-15T02:09:45.357Z,62.55
2018-05-15T02:10:16.970Z,62.36
2018-05-15T02:10:48.594Z,62.05
2018-05-15T02:11:20.236Z,62.15
2018-05-15T02:11:51.832Z,62.01
2018-05-15T02:12:23.418Z,62.21
2018-05-15T02:12:55.001Z,61.93
2018-05-15T02:13:26.573Z,62.08
2018-05-15T02:13:58.148Z,62.02
2018-05-15T02:14:29.756Z,62.30
2018-05-15T02:15:01.344Z,62.31
2018-05-15T02:15:32.936Z,62.16
2018-05-15T02:16:04.525Z,62.30
2018-05-15T02:16:36.170Z,62.25
2018-05-15T02:17:07.757Z,62.35
2018-05-15T02:17:39.362Z,62.29
2018-05-15T02:18:10.945Z,62.35
2018-05-15T02:18:42.549Z,62.25
2018-05-15T02:19:14.121Z,62.47
2018-05-15T02:19:45.730Z,62.55
2018-05-15T02:20:17.317Z,62.42
2018-05-15T02:20:48.913Z,62.52
2018-05-15T02:21:20.522Z,62.14
2018-05-15T02:21:52.186Z,62.25
2018-05-15T02:22:23.780Z,62.41
2018-05-15T02:22:55.385Z,62.52
2018-05-15T02:23:26.983Z,62.43
2018-05-15T02:23:58.569Z,62.46
2018-05-15T02:24:30.164Z,62.30
2018-05-15T02:25:01.761Z,62.44
2018-05-15T02:25:33.332Z,62.38
2018-05-15T02:26:04.933Z,62.51
2018-05-15T02:26:36.504Z,62.69
2018-05-15T02:27:08.158Z,62.70
2018-05-15T02:27:39.747Z,62.58
2018-05-15T02:28:11.332Z,62.69
2018-05-15T02:28:42.938Z,62.51
2018-05-15T02:29:14.542Z,63.60
2018-05-15T02:29:46.150Z,63.08
2018-05-15T02:30:17.754Z,62.83
2018-05-15T02:30:49.366Z,63.15
2018-05-15T02:31:20.978Z,63.67
2018-05-15T02:31:52.590Z,63.39
2018-05-15T02:32:24.223Z,63.24
2018-05-15T02:32:55.807Z,63.25
2018-05-15T02:33:27.397Z,63.20
2018-05-15T02:33:58.978Z,63.27
2018-05-15T02:34:30.573Z,63.35
2018-05-15T02:35:02.176Z,63.31
2018-05-15T02:35:33.790Z,63.36
2018-05-15T02:36:05.374Z,63.49
2018-05-15T02:36:36.988Z,63.38
2018-05-15T02:37:08.571Z,63.23
2018-05-15T02:37:40.165Z,63.35
2018-05-15T02:38:11.753Z,63.29
2018-05-15T02:38:43.342Z,63.40
2018-05-15T02:39:14.946Z,63.47
2018-05-15T02:39:46.538Z,63.38
2018-05-15T02:40:18.147Z,63.44
2018-05-15T02:40:49.758Z,63.65
2018-05-15T02:41:21.357Z,63.39
2018-05-15T02:41:52.946Z,64.30
2018-05-15T02:42:24.523Z,63.96
2018-05-15T02:42:56.138Z,63.79
2018-05-15T02:43:27.746Z,64.09
2018-05-15T02:43:59.353Z,64.04
2018-05-15T02:44:30.969Z,63.75
2018-05-15T02:45:02.560Z,63.77
2018-05-15T02:45:34.137Z,63.89
2018-05-15T02:46:05.752Z,63.79
2018-05-15T02:46:37.342Z,63.78
2018-05-15T02:47:08.925Z,63.86
2018-05-15T02:47:40.545Z,63.92
2018-05-15T02:48:12.155Z,63.80
2018-05-15T02:48:43.739Z,63.77
2018-05-15T02:49:15.363Z,63.96
2018-05-15T02:49:46.946Z,63.78
2018-05-15T02:50:18.534Z,63.83
2018-05-15T02:50:50.104Z,64.08
2018-05-15T02:51:21.710Z,63.79
2018-05-15T02:51:53.305Z,63.74
2018-05-15T02:52:24.890Z,63.75
2018-05-15T02:52:56.494Z,63.80
2018-05-15T02:53:28.077Z,63.70
2018-05-15T02:53:59.668Z,63.85
2018-05-15T02:54:31.241Z,63.68
2018-05-15T02:55:02.886Z,63.61
2018-05-15T02:55:34.519Z,63.55
2018-05-15T02:56:06.128Z,63.58
2018-05-15T02:56:37.728Z,63.64
2018-05-15T02:57:09.337Z,63.69
2018-05-15T02:57:40.933Z,63.65
2018-05-15T02:58:12.542Z,63.48
2018-05-15T02:58:44.140Z,63.54
2018-05-15T02:59:15.756Z,63.51
2018-05-15T02:59:47.329Z,63.57
2018-05-15T03:00:18.920Z,63.57
2018-05-15T03:00:50.547Z,63.62
2018-05-15T03:01:22.164Z,63.53
2018-05-15T03:01:53.798Z,63.53
2018-05-15T03:02:25.372Z,63.44
2018-05-15T03:02:56.955Z,63.42
2018-05-15T03:03:28.536Z,63.26
2018-05-15T03:04:00.147Z,63.31
2018-05-15T03:04:31.759Z,63.14
2018-05-15T03:05:03.379Z,63.01
2018-05-15T03:05:34.989Z,63.02
2018-05-15T03:06:06.578Z,63.33
2018-05-15T03:06:38.151Z,63.25
2018-05-15T03:07:09.793Z,63.39
2018-05-15T03:07:41.382Z,63.27
2018-05-15T03:08:12.986Z,63.61
2018-05-15T03:08:44.566Z,63.47
2018-05-15T03:09:16.162Z,63.80
2018-05-15T03:09:47.771Z,63.79
2018-05-15T03:10:19.406Z,63.70
2018-05-15T03:10:50.978Z,63.82
2018-05-15T03:11:22.595Z,63.89
2018-05-15T03:11:54.193Z,63.78
2018-05-15T03:12:25.779Z,63.78
2018-05-15T03:12:57.350Z,63.78
2018-05-15T03:13:28.938Z,63.96
2018-05-15T03:14:00.559Z,63.82
2018-05-15T03:14:32.136Z,63.88
2018-05-15T03:15:03.705Z,63.72
2018-05-15T03:15:35.306Z,63.76
2018-05-15T03:16:06.907Z,63.86
2018-05-15T03:16:38.494Z,63.70
2018-05-15T03:17:10.150Z,63.71
2018-05-15T03:17:41.751Z,63.80
2018-05-15T03:18:13.352Z,63.75
2018-05-15T03:18:44.961Z,63.75
2018-05-15T03:19:16.545Z,63.64
2018-05-15T03:19:48.130Z,63.77
2018-05-15T03:20:19.717Z,63.74
2018-05-15T03:20:51.308Z,63.82
2018-05-15T03:21:22.902Z,63.80
2018-05-15T03:21:54.496Z,63.77
2018-05-15T03:22:26.136Z,63.82
2018-05-15T03:22:57.742Z,64.21
2018-05-15T03:23:29.355Z,64.15
2018-05-15T03:24:00.955Z,63.95
2018-05-15T03:24:32.541Z,64.08
2018-05-15T03:25:04.136Z,64.04
2018-05-15T03:25:35.728Z,64.04
2018-05-15T03:26:07.330Z,63.88
2018-05-15T03:26:38.949Z,63.83
2018-05-15T03:27:10.534Z,63.85
2018-05-15T03:27:42.105Z,63.90
2018-05-15T03:28:13.686Z,63.96
2018-05-15T03:28:45.280Z,63.93
2018-05-15T03:29:16.862Z,63.87
2018-05-15T03:29:48.457Z,63.80
2018-05-15T03:30:20.065Z,63.93
2018-05-15T03:30:51.660Z,63.81
2018-05-15T03:31:23.232Z,63.78
2018-05-15T03:31:54.882Z,63.64
2018-05-15T03:32:26.490Z,63.68
2018-05-15T03:32:58.093Z,63.64
2018-05-15T03:33:29.678Z,63.69
2018-05-15T03:34:01.255Z,63.58
2018-05-15T03:34:32.866Z,63.54
2018-05-15T03:35:04.473Z,63.46
2018-05-15T03:35:36.072Z,63.60
2018-05-15T03:36:07.662Z,63.58
2018-05-15T03:36:39.242Z,63.53
2018-05-15T03:37:10.836Z,64.01
2018-05-15T03:37:42.449Z,63.69
2018-05-15T03:38:14.062Z,63.78
2018-05-15T03:38:45.647Z,63.66
2018-05-15T03:39:17.290Z,63.77
2018-05-15T03:39:48.884Z,63.68
2018-05-15T03:40:20.471Z,63.77
2018-05-15T03:40:52.056Z,63.84
2018-05-15T03:41:23.638Z,63.77
2018-05-15T03:41:55.247Z,63.79
2018-05-15T03:42:26.834Z,63.74
2018-05-15T03:42:58.428Z,63.93
2018-05-15T03:43:30.010Z,63.80
2018-05-15T03:44:01.604Z,63.88
2018-05-15T03:44:33.200Z,63.96
2018-05-15T03:45:04.809Z,63.82
2018-05-15T03:45:36.407Z,63.82
2018-05-15T03:46:08.018Z,63.78
2018-05-15T03:46:39.629Z,63.81
2018-05-15T03:47:11.205Z,63.72
2018-05-15T03:47:42.814Z,63.88
2018-05-15T03:48:14.397Z,63.83
2018-05-15T03:48:45.996Z,63.71
2018-05-15T03:49:17.640Z,63.76
2018-05-15T03:49:49.257Z,63.72
2018-05-15T03:50:20.860Z,63.89
2018-05-15T03:50:52.470Z,63.93
2018-05-15T03:51:24.065Z,63.71
2018-05-15T03:51:55.669Z,64.01
2018-05-15T03:52:27.254Z,63.85
2018-05-15T03:52:58.861Z,63.92
2018-05-15T03:53:30.450Z,63.74
2018-05-15T03:54:02.034Z,63.76
2018-05-15T03:54:33.647Z,63.78
2018-05-15T03:55:05.304Z,63.78
2018-05-15T03:55:36.905Z,63.70
2018-05-15T03:56:08.519Z,63.66
2018-05-15T03:56:40.117Z,63.66
2018-05-15T03:57:11.707Z,63.64
2018-05-15T03:57:43.290Z,63.69
2018-05-15T03:58:14.914Z,63.68
2018-05-15T03:58:46.502Z,63.54
2018-05-15T03:59:18.102Z,63.70
2018-05-15T03:59:49.724Z,63.59
2018-05-15T04:00:21.297Z,63.69
2018-05-15T04:00:52.905Z,63.55
2018-05-15T04:01:24.504Z,63.67
2018-05-15T04:01:56.090Z,63.61
2018-05-15T04:02:27.694Z,63.63
2018-05-15T04:02:59.306Z,63.63
2018-05-15T04:03:30.908Z,63.63
2018-05-15T04:04:02.495Z,63.51
2018-05-15T04:04:34.064Z,63.65
2018-05-15T04:05:05.720Z,63.79
2018-05-15T04:05:37.334Z,63.81
2018-05-15T04:06:08.908Z,63.76
2018-05-15T04:06:40.502Z,63.80
2018-05-15T04:07:12.110Z,63.86
2018-05-15T04:07:43.701Z,63.76
2018-05-15T04:08:15.304Z,63.78
2018-05-15T04:08:46.965Z,63.74
2018-05-15T04:09:18.482Z,63.72
2018-05-15T04:09:50.061Z,63.68
2018-05-15T04:10:21.702Z,63.75
2018-05-15T04:10:53.321Z,63.79
2018-05-15T04:11:24.958Z,63.75
2018-05-15T04:11:56.542Z,63.84
2018-05-15T04:12:28.113Z,63.70
2018-05-15T04:12:59.722Z,63.67
2018-05-15T04:13:31.314Z,63.70
2018-05-15T04:14:02.894Z,63.70
2018-05-15T04:14:34.502Z,63.72
2018-05-15T04:15:06.093Z,63.78
2018-05-15T04:15:37.669Z,63.82
2018-05-15T04:16:09.258Z,63.81
2018-05-15T04:16:40.904Z,63.87
2018-05-15T04:17:12.518Z,63.76
2018-05-15T04:17:44.089Z,63.86
2018-05-15T04:18:15.695Z,64.01
2018-05-15T04:18:47.268Z,64.03
2018-05-15T04:19:18.846Z,63.84
2018-05-15T04:19:50.468Z,63.83
2018-05-15T04:20:22.076Z,63.91
2018-05-15T04:20:53.662Z,63.76
2018-05-15T04:21:25.240Z,63.81
2018-05-15T04:21:56.845Z,63.81
2018-05-15T04:22:28.434Z,63.77
2018-05-15T04:23:00.038Z,63.86
2018-05-15T04:23:31.626Z,63.83
2018-05-15T04:24:03.220Z,63.86
2018-05-15T04:24:34.807Z,63.74
2018-05-15T04:25:06.470Z,63.86
2018-05-15T04:25:38.049Z,63.73
2018-05-15T04:26:09.640Z,63.78
2018-05-15T04:26:41.255Z,63.83
2018-05-15T04:27:12.853Z,64.00
2018-05-15T04:27:44.438Z,63.90
2018-05-15T04:28:16.125Z,63.99
2018-05-15T04:28:47.646Z,63.94
2018-05-15T04:29:19.248Z,64.08
2018-05-15T04:29:50.821Z,64.12
2018-05-15T04:30:22.475Z,63.97
2018-05-15T04:30:54.058Z,63.97
2018-05-15T04:31:25.642Z,64.16
2018-05-15T04:31:57.228Z,64.04
2018-05-15T04:32:28.887Z,64.08
2018-05-15T04:33:00.495Z,64.24
2018-05-15T04:33:32.110Z,64.20
2018-05-15T04:34:03.699Z,64.11
2018-05-15T04:34:35.269Z,64.24
2018-05-15T04:35:06.878Z,64.22
2018-05-15T04:35:38.445Z,64.17
2018-05-15T04:36:10.021Z,64.13
2018-05-15T04:36:41.627Z,64.06
2018-05-15T04:37:13.241Z,63.91
2018-05-15T04:37:44.856Z,63.86
2018-05-15T04:38:16.434Z,63.77
2018-05-15T04:38:48.024Z,63.75
2018-05-15T04:39:19.634Z,63.90
2018-05-15T04:39:51.204Z,63.75
2018-05-15T04:40:22.815Z,63.68
2018-05-15T04:40:54.412Z,63.68
2018-05-15T04:41:25.994Z,63.64
2018-05-15T04:41:57.574Z,63.47
2018-05-15T04:42:29.177Z,63.59
2018-05-15T04:43:00.802Z,63.49
2018-05-15T04:43:32.446Z,63.42
2018-05-15T04:44:04.038Z,63.32
2018-05-15T04:44:35.641Z,63.65
2018-05-15T04:45:07.236Z,63.45
2018-05-15T04:45:38.822Z,63.51
2018-05-15T04:46:10.414Z,63.44
2018-05-15T04:46:42.002Z,63.42
2018-05-15T04:47:13.610Z,63.62
2018-05-15T04:47:45.213Z,63.74
2018-05-15T04:48:16.832Z,63.71
2018-05-15T04:48:48.490Z,63.59
2018-05-15T04:49:20.141Z,63.88
2018-05-15T04:49:51.689Z,63.98
2018-05-15T04:50:23.270Z,64.05
2018-05-15T04:50:54.854Z,63.77
2018-05-15T04:51:26.444Z,63.48
2018-05-15T04:51:58.054Z,63.80
2018-05-15T04:52:29.629Z,63.66
2018-05-15T04:53:01.219Z,63.79
2018-05-15T04:53:32.798Z,63.91
2018-05-15T04:54:04.395Z,63.76
2018-05-15T04:54:36.003Z,63.86
2018-05-15T04:55:07.613Z,63.84
2018-05-15T04:55:39.232Z,63.62
2018-05-15T04:56:10.813Z,63.68
2018-05-15T04:56:42.402Z,63.67
2018-05-15T04:57:14.006Z,63.56
2018-05-15T04:57:45.613Z,63.65
2018-05-15T04:58:17.227Z,63.67
2018-05-15T04:58:48.874Z,63.67
2018-05-15T04:59:20.473Z,63.78
2018-05-15T04:59:52.064Z,63.97
2018-05-15T05:00:23.640Z,63.80
2018-05-15T05:00:55.212Z,63.80
2018-05-15T05:01:26.822Z,63.85
2018-05-15T05:01:58.479Z,63.99
2018-05-15T05:02:30.042Z,63.55
2018-05-15T05:03:01.665Z,63.82
2018-05-15T05:03:33.265Z,63.71
2018-05-15T05:04:04.873Z,63.74
2018-05-15T05:04:36.479Z,63.78
2018-05-15T05:05:08.076Z,63.64
2018-05-15T05:05:39.649Z,63.78
2018-05-15T05:06:11.234Z,63.84
2018-05-15T05:06:42.841Z,63.89
2018-05-15T05:07:14.416Z,63.75
2018-05-15T05:07:46.009Z,63.66
2018-05-15T05:08:17.658Z,63.82
2018-05-15T05:08:49.266Z,63.70
2018-05-15T05:09:20.846Z,63.62
2018-05-15T05:09:52.426Z,63.51
2018-05-15T05:10:24.021Z,63.48
2018-05-15T05:10:55.625Z,63.67
2018-05-15T05:11:27.203Z,63.71
2018-05-15T05:11:58.784Z,63.40
2018-05-15T05:12:30.432Z,63.35
2018-05-15T05:13:02.020Z,63.64
2018-05-15T05:13:33.610Z,63.56
2018-05-15T05:14:05.242Z,63.76
2018-05-15T05:14:36.847Z,63.98
2018-05-15T05:15:08.462Z,63.72
2018-05-15T05:15:40.037Z,63.73
2018-05-15T05:16:11.614Z,63.93
2018-05-15T05:16:43.218Z,63.85
2018-05-15T05:17:14.821Z,63.68
2018-05-15T05:17:46.426Z,64.03
2018-05-15T05:18:18.024Z,63.54
2018-05-15T05:18:49.634Z,63.78
2018-05-15T05:19:21.262Z,63.72
2018-05-15T05:19:52.865Z,63.50
2018-05-15T05:20:24.458Z,63.52
2018-05-15T05:20:56.033Z,63.46
2018-05-15T05:21:27.614Z,63.32
2018-05-15T05:21:59.218Z,63.36
2018-05-15T05:22:30.847Z,63.57
2018-05-15T05:23:02.454Z,63.51
2018-05-15T05:23:34.038Z,63.42
2018-05-15T05:24:05.632Z,63.53
2018-05-15T05:24:37.226Z,63.34
2018-05-15T05:25:08.816Z,63.29
2018-05-15T05:25:40.403Z,63.26
2018-05-15T05:26:11.987Z,63.28
2018-05-15T05:26:43.582Z,63.46
2018-05-15T05:27:15.268Z,63.63
2018-05-15T05:27:46.818Z,63.32
2018-05-15T05:28:18.402Z,63.50
2018-05-15T05:28:49.981Z,63.34
2018-05-15T05:29:21.619Z,63.31
2018-05-15T05:29:53.213Z,63.30
2018-05-15T05:30:24.804Z,63.33
2018-05-15T05:30:56.409Z,63.37
2018-05-15T05:31:28.034Z,63.41
2018-05-15T05:31:59.604Z,63.47
2018-05-15T05:32:31.176Z,63.51
2018-05-15T05:33:02.749Z,63.54
2018-05-15T05:33:34.335Z,63.63
2018-05-15T05:34:05.909Z,63.38
2018-05-15T05:34:37.492Z,63.72
2018-05-15T05:35:09.126Z,64.02
2018-05-15T05:35:40.734Z,63.61
2018-05-15T05:36:12.394Z,63.82
2018-05-15T05:36:43.998Z,63.83
2018-05-15T05:37:15.592Z,63.91
2018-05-15T05:37:47.178Z,63.87
2018-05-15T05:38:18.744Z,63.77
2018-05-15T05:38:50.321Z,63.81
2018-05-15T05:39:21.921Z,64.04
2018-05-15T05:39:53.506Z,64.46
2018-05-15T05:40:25.077Z,64.40
2018-05-15T05:40:56.667Z,64.39
2018-05-15T05:41:28.313Z,64.27
2018-05-15T05:41:59.917Z,64.39
2018-05-15T05:42:31.506Z,64.37
2018-05-15T05:43:03.080Z,64.47
2018-05-15T05:43:34.686Z,64.90
2018-05-15T05:44:06.274Z,64.45
2018-05-15T05:44:37.851Z,64.60
2018-05-15T05:45:09.434Z,65.02
2018-05-15T05:45:41.031Z,64.67
2018-05-15T05:46:12.630Z,64.45
2018-05-15T05:46:44.264Z,64.71
2018-05-15T05:47:15.841Z,64.57
2018-05-15T05:47:47.425Z,64.72
2018-05-15T05:48:19.008Z,64.74
2018-05-15T05:48:50.613Z,64.69
2018-05-15T05:49:22.230Z,64.77
2018-05-15T05:49:53.837Z,64.93
2018-05-15T05:50:25.423Z,64.96
2018-05-15T05:50:57.066Z,64.89
2018-05-15T05:51:28.652Z,65.05
2018-05-15T05:52:00.276Z,65.03
2018-05-15T05:52:31.856Z,65.38
2018-05-15T05:53:03.452Z,65.41
2018-05-15T05:53:35.052Z,65.16
2018-05-15T05:54:06.669Z,65.35
2018-05-15T05:54:38.318Z,65.53
2018-05-15T05:55:09.892Z,65.37
2018-05-15T05:55:41.460Z,65.60
2018-05-15T05:56:13.056Z,65.36
2018-05-15T05:56:44.666Z,65.47
2018-05-15T05:57:16.326Z,65.27
2018-05-15T05:57:47.872Z,65.23
2018-05-15T05:58:19.486Z,65.38
2018-05-15T05:58:51.090Z,65.63
2018-05-15T05:59:22.674Z,65.50
2018-05-15T05:59:54.301Z,65.55
2018-05-15T06:00:25.881Z,65.83
2018-05-15T06:00:57.465Z,66.47
2018-05-15T06:01:29.074Z,65.77
2018-05-15T06:02:00.673Z,65.78
2018-05-15T06:02:32.276Z,65.79
2018-05-15T06:03:03.852Z,65.80
2018-05-15T06:03:35.489Z,65.83
2018-05-15T06:04:07.079Z,66.70
2018-05-15T06:04:38.730Z,66.96
2018-05-15T06:05:10.314Z,66.45
2018-05-15T06:05:41.918Z,66.81
2018-05-15T06:06:13.506Z,67.20
2018-05-15T06:06:45.104Z,66.74
2018-05-15T06:07:16.725Z,67.05
2018-05-15T06:07:48.313Z,66.69
2018-05-15T06:08:19.906Z,66.90
2018-05-15T06:08:51.498Z,66.82
2018-05-15T06:09:23.087Z,66.54
2018-05-15T06:09:54.718Z,67.01
2018-05-15T06:10:26.317Z,66.89
2018-05-15T06:10:57.930Z,66.91
2018-05-15T06:11:29.543Z,66.96
2018-05-15T06:12:01.140Z,66.97
2018-05-15T06:12:32.735Z,67.25
2018-05-15T06:13:04.363Z,67.00
2018-05-15T06:13:35.962Z,67.37
2018-05-15T06:14:07.578Z,67.03
2018-05-15T06:14:39.167Z,67.21
2018-05-15T06:15:10.737Z,67.16
2018-05-15T06:15:42.308Z,67.02
2018-05-15T06:16:13.887Z,67.15
2018-05-15T06:16:45.512Z,67.36
2018-05-15T06:17:17.123Z,67.38
2018-05-15T06:17:48.734Z,67.12
2018-05-15T06:18:20.304Z,67.07
2018-05-15T06:18:52.009Z,67.17
2018-05-15T06:19:23.622Z,67.01
2018-05-15T06:19:55.210Z,67.23
2018-05-15T06:20:26.800Z,67.03
2018-05-15T06:20:58.389Z,67.13
2018-05-15T06:21:30.056Z,67.04
2018-05-15T06:22:01.666Z,67.04
2018-05-15T06:22:33.269Z,67.21
2018-05-15T06:23:04.840Z,66.92
2018-05-15T06:23:36.449Z,67.01
2018-05-15T06:24:08.021Z,67.00
2018-05-15T06:24:39.612Z,67.21
2018-05-15T06:25:11.225Z,66.98
2018-05-15T06:25:42.821Z,67.10
2018-05-15T06:26:14.435Z,66.88
2018-05-15T06:26:46.063Z,67.06
2018-05-15T06:27:17.670Z,66.92
2018-05-15T06:27:50.273Z,66.68
2018-05-15T06:28:21.879Z,66.84
2018-05-15T06:28:53.496Z,66.73
2018-05-15T06:29:25.068Z,66.63
2018-05-15T06:29:56.646Z,66.56
2018-05-15T06:30:28.249Z,66.47
2018-05-15T06:30:59.844Z,66.47
2018-05-15T06:31:31.478Z,66.55
2018-05-15T06:32:03.052Z,66.27
2018-05-15T06:32:34.671Z,66.36
2018-05-15T06:33:06.258Z,66.20
2018-05-15T06:33:37.841Z,66.24
2018-05-15T06:34:09.422Z,66.12
2018-05-15T06:34:41.006Z,66.19
2018-05-15T06:35:12.600Z,66.05
2018-05-15T06:35:44.207Z,65.94
2018-05-15T06:36:15.814Z,66.08
2018-05-15T06:36:47.470Z,66.04
2018-05-15T06:37:19.041Z,65.91
2018-05-15T06:37:50.626Z,65.89
2018-05-15T06:38:22.196Z,65.90
2018-05-15T06:38:53.779Z,65.72
2018-05-15T06:39:25.405Z,65.62
2018-05-15T06:39:57.000Z,65.75
2018-05-15T06:40:28.606Z,65.66
2018-05-15T06:41:00.194Z,65.76
2018-05-15T06:41:31.798Z,65.61
2018-05-15T06:42:03.426Z,65.58
2018-05-15T06:42:35.002Z,65.58
2018-05-15T06:43:06.585Z,65.60
2018-05-15T06:43:38.185Z,65.52
2018-05-15T06:44:09.803Z,65.55
2018-05-15T06:44:41.435Z,65.58
2018-05-15T06:45:13.001Z,65.43
2018-05-15T06:45:44.602Z,65.56
2018-05-15T06:46:16.196Z,65.47
2018-05-15T06:46:47.809Z,65.30